createdAt,value
2022-10-28T00:00:15.407Z,28.98
2022-10-28T00:02:42.634Z,29.27
2022-10-28T00:05:09.990Z,26.45
2022-10-28T00:07:37.134Z,26.10
2022-10-28T00:10:04.594Z,23.95
2022-10-28T00:12:31.744Z,25.65
2022-10-28T00:14:58.890Z,23.35
2022-10-28T00:17:26.010Z,23.33
2022-10-28T00:19:53.126Z,22.88
2022-10-28T00:22:20.283Z,21.65
2022-10-28T00:24:47.398Z,25.70
2022-10-28T00:27:14.515Z,25.83
2022-10-28T00:29:41.659Z,22.23
2022-10-28T00:32:08.800Z,20.75
2022-10-28T00:34:35.954Z,19.50
2022-10-28T00:37:03.113Z,20.88
2022-10-28T00:39:30.251Z,22.73
2022-10-28T00:41:58.366Z,24.00
2022-10-28T00:44:40.625Z,24.02
2022-10-28T00:47:27.998Z,22.55
2022-10-28T00:50:04.448Z,43.35
2022-10-28T00:52:31.571Z,43.38
2022-10-28T00:54:58.683Z,37.28
2022-10-28T00:57:26.578Z,34.50
2022-10-28T00:59:53.970Z,34.60
2022-10-28T01:02:21.457Z,32.47
2022-10-28T01:04:48.742Z,28.10
2022-10-28T01:07:16.083Z,32.75
2022-10-28T01:09:43.243Z,31.83
2022-10-28T01:12:15.261Z,34.15
2022-10-28T01:14:48.517Z,37.28
2022-10-28T01:17:18.527Z,37.40
2022-10-28T01:19:56.862Z,35.78
2022-10-28T01:22:25.000Z,38.30
2022-10-28T01:25:01.494Z,37.75
2022-10-28T01:27:47.283Z,38.40
2022-10-28T01:30:17.412Z,34.60
2022-10-28T01:32:44.531Z,36.17
2022-10-28T01:35:21.088Z,39.70
2022-10-28T01:37:50.211Z,41.05
2022-10-28T01:40:30.227Z,38.05
2022-10-28T01:43:35.713Z,43.43
2022-10-28T01:46:05.007Z,42.55
2022-10-28T01:48:42.377Z,42.80
2022-10-28T01:51:11.778Z,38.90
2022-10-28T01:53:41.694Z,40.72
2022-10-28T01:56:10.735Z,46.42
2022-10-28T01:58:37.942Z,56.15
2022-10-28T02:01:05.805Z,52.33
2022-10-28T02:03:33.024Z,73.90
2022-10-28T02:06:01.235Z,71.32
2022-10-28T02:08:28.357Z,77.57
2022-10-28T02:10:58.257Z,87.13
2022-10-28T02:13:26.654Z,93.80
2022-10-28T02:16:04.839Z,92.63
2022-10-28T02:18:55.336Z,108.10
2022-10-28T02:21:27.488Z,81.05
2022-10-28T02:23:59.520Z,57.37
2022-10-28T02:26:37.508Z,63.37
2022-10-28T02:29:06.486Z,60.30
2022-10-28T02:31:38.552Z,63.22
2022-10-28T02:34:07.795Z,51.78
2022-10-28T02:36:36.034Z,48.80
2022-10-28T02:39:03.164Z,42.97
2022-10-28T02:41:45.149Z,39.03
2022-10-28T02:44:13.872Z,41.47
2022-10-28T02:46:41.531Z,44.23
2022-10-28T02:49:09.482Z,43.37
2022-10-28T02:51:37.556Z,45.88
2022-10-28T02:54:10.709Z,41.10
2022-10-28T02:56:38.637Z,43.27
2022-10-28T02:59:09.199Z,43.15
2022-10-28T03:01:36.487Z,41.07
2022-10-28T03:04:05.030Z,36.50
2022-10-28T03:06:32.168Z,33.47
2022-10-28T03:08:59.317Z,29.83
2022-10-28T03:11:26.458Z,31.17
2022-10-28T03:13:53.575Z,33.05
2022-10-28T03:16:20.723Z,34.00
2022-10-28T03:18:47.844Z,37.00
2022-10-28T03:21:14.974Z,34.60
2022-10-28T03:23:42.138Z,35.60
2022-10-28T03:26:09.259Z,40.97
2022-10-28T03:28:36.437Z,38.40
2022-10-28T03:31:03.607Z,37.03
2022-10-28T03:33:30.729Z,35.23
2022-10-28T03:35:57.913Z,35.67
2022-10-28T03:38:25.126Z,37.57
2022-10-28T03:40:52.246Z,41.67
2022-10-28T03:43:19.369Z,43.03
2022-10-28T03:45:46.533Z,42.92
2022-10-28T03:48:13.697Z,44.17
2022-10-28T03:50:40.839Z,42.90
2022-10-28T03:53:08.065Z,44.00
2022-10-28T03:55:35.187Z,51.40
2022-10-28T03:58:02.417Z,48.83
2022-10-28T04:00:29.858Z,48.70
2022-10-28T04:02:57.126Z,52.50
2022-10-28T04:05:24.408Z,61.83
2022-10-28T04:07:52.809Z,59.17
2022-10-28T04:10:19.942Z,55.43
2022-10-28T04:12:47.054Z,52.93
2022-10-28T04:15:14.255Z,68.93
2022-10-28T04:17:41.375Z,66.57
2022-10-28T04:20:08.944Z,63.50
2022-10-28T04:22:36.113Z,65.60
2022-10-28T04:25:03.294Z,63.53
2022-10-28T04:27:30.520Z,62.90
2022-10-28T04:29:57.696Z,65.40
2022-10-28T04:32:24.847Z,65.27
2022-10-28T04:34:51.963Z,73.83
2022-10-28T04:37:20.545Z,72.83
2022-10-28T04:39:47.913Z,73.60
2022-10-28T04:42:15.072Z,84.70
2022-10-28T04:44:42.266Z,81.53
2022-10-28T04:47:09.406Z,90.93
2022-10-28T04:49:38.823Z,83.13
2022-10-28T04:52:06.318Z,84.37
2022-10-28T04:54:33.471Z,84.70
2022-10-28T04:57:00.639Z,80.87
2022-10-28T04:59:27.841Z,84.60
2022-10-28T05:01:55.150Z,76.47
2022-10-28T05:04:22.339Z,72.87
2022-10-28T05:06:49.562Z,76.63
2022-10-28T05:09:16.697Z,77.33
2022-10-28T05:11:43.846Z,77.70
2022-10-28T05:14:11.008Z,80.70
2022-10-28T05:16:38.131Z,80.40
2022-10-28T05:19:05.265Z,78.57
2022-10-28T05:21:32.425Z,75.87
2022-10-28T05:23:59.574Z,72.10
2022-10-28T05:26:26.689Z,65.93
2022-10-28T05:28:53.855Z,67.43
2022-10-28T05:31:21.029Z,72.17
2022-10-28T05:33:48.151Z,77.77
2022-10-28T05:36:15.305Z,72.23
2022-10-28T05:38:45.370Z,68.30
2022-10-28T05:41:12.690Z,66.40
2022-10-28T05:43:39.838Z,65.20
2022-10-28T05:46:06.966Z,65.10
2022-10-28T05:48:34.159Z,59.37
2022-10-28T05:51:01.381Z,60.57
2022-10-28T05:53:28.556Z,58.13
2022-10-28T05:55:55.675Z,59.90
2022-10-28T05:58:22.820Z,61.47
2022-10-28T06:00:49.951Z,63.47
2022-10-28T06:03:17.163Z,58.10
2022-10-28T06:05:44.699Z,59.10
2022-10-28T06:08:12.509Z,54.53
2022-10-28T06:10:39.770Z,51.73
2022-10-28T06:13:05.971Z,54.20
2022-10-28T06:15:33.112Z,48.80
2022-10-28T06:18:00.301Z,47.37
2022-10-28T06:20:27.456Z,44.23
2022-10-28T06:22:56.189Z,44.83
2022-10-28T06:25:23.732Z,43.73
2022-10-28T06:27:57.178Z,41.70
2022-10-28T06:30:24.818Z,37.87
2022-10-28T06:32:52.047Z,38.47
2022-10-28T06:35:19.280Z,43.77
2022-10-28T06:37:46.457Z,51.55
2022-10-28T06:40:13.638Z,54.20
2022-10-28T06:42:40.805Z,57.58
2022-10-28T06:45:08.178Z,55.47
2022-10-28T06:47:40.595Z,52.25
2022-10-28T06:50:09.046Z,50.05
2022-10-28T06:52:36.200Z,47.35
2022-10-28T06:55:03.421Z,57.45
2022-10-28T06:57:30.608Z,71.32
2022-10-28T06:59:57.803Z,80.93
2022-10-28T07:02:25.018Z,79.40
2022-10-28T07:04:52.258Z,66.18
2022-10-28T07:07:19.771Z,70.43
2022-10-28T07:09:46.985Z,70.50
2022-10-28T07:12:14.291Z,71.75
2022-10-28T07:14:41.450Z,68.85
2022-10-28T07:17:08.573Z,67.72
2022-10-28T07:19:35.734Z,67.53
2022-10-28T07:22:02.880Z,69.43
2022-10-28T07:24:30.011Z,72.47
2022-10-28T07:26:57.933Z,74.82
2022-10-28T07:29:25.187Z,73.63
2022-10-28T07:31:54.614Z,61.85
2022-10-28T07:34:26.748Z,66.88
2022-10-28T07:36:54.968Z,62.70
2022-10-28T07:39:22.129Z,80.40
2022-10-28T07:41:49.284Z,64.85
2022-10-28T07:44:16.421Z,71.47
2022-10-28T07:46:43.605Z,70.80
2022-10-28T07:49:10.740Z,66.05
2022-10-28T07:51:37.964Z,54.88
2022-10-28T07:54:05.185Z,50.90
2022-10-28T07:56:32.392Z,47.72
2022-10-28T07:59:00.758Z,46.45
2022-10-28T08:01:28.042Z,44.85
2022-10-28T08:03:55.281Z,40.00
2022-10-28T08:06:22.574Z,45.47
2022-10-28T08:08:49.957Z,42.33
2022-10-28T08:11:18.976Z,36.13
2022-10-28T08:13:46.344Z,27.65
2022-10-28T08:16:13.541Z,46.72
2022-10-28T08:18:40.705Z,40.67
2022-10-28T08:21:08.698Z,39.00
2022-10-28T08:23:36.086Z,42.83
2022-10-28T08:26:03.235Z,40.40
2022-10-28T08:28:30.376Z,32.95
2022-10-28T08:31:08.517Z,28.95
2022-10-28T08:33:36.899Z,15.10
2022-10-28T08:36:04.136Z,10.65
2022-10-28T08:38:31.342Z,6.20
2022-10-28T08:41:16.538Z,4.63
2022-10-28T08:43:57.216Z,3.83
2022-10-28T08:46:43.460Z,3.55
2022-10-28T08:49:15.298Z,3.70
2022-10-28T08:51:45.290Z,3.58
2022-10-28T08:54:26.193Z,4.28
2022-10-28T08:56:55.057Z,3.50
2022-10-28T08:59:26.617Z,3.15
2022-10-28T09:02:15.299Z,2.80
2022-10-28T09:04:42.987Z,3.03
2022-10-28T09:07:11.829Z,4.15
2022-10-28T09:09:39.001Z,4.85
2022-10-28T09:12:24.732Z,7.40
2022-10-28T09:15:10.684Z,5.47
2022-10-28T09:17:37.825Z,5.93
2022-10-28T09:20:14.059Z,15.52
2022-10-28T09:23:10.842Z,23.10
2022-10-28T09:25:56.768Z,11.02
2022-10-28T09:28:23.877Z,9.43
2022-10-28T09:30:53.904Z,12.82
2022-10-28T09:33:36.386Z,11.95
2022-10-28T09:36:06.536Z,6.75
2022-10-28T09:38:34.468Z,3.88
2022-10-28T09:41:18.382Z,5.50
2022-10-28T09:43:47.664Z,3.65
2022-10-28T09:46:15.873Z,3.25
2022-10-28T09:48:49.782Z,3.10
2022-10-28T09:51:19.590Z,3.08
2022-10-28T09:53:51.721Z,2.35
2022-10-28T09:56:18.844Z,2.42
2022-10-28T09:58:46.771Z,2.10
2022-10-28T10:01:14.223Z,2.58
2022-10-28T10:03:41.842Z,6.85
2022-10-28T10:06:12.625Z,3.20
2022-10-28T10:08:40.271Z,2.25
2022-10-28T10:11:08.003Z,4.82
2022-10-28T10:13:36.250Z,8.65
2022-10-28T10:16:08.308Z,2.20
2022-10-28T10:18:35.462Z,2.80
2022-10-28T10:21:02.744Z,2.60
2022-10-28T10:23:37.053Z,2.50
2022-10-28T10:26:06.861Z,2.40
2022-10-28T10:28:37.575Z,2.15
2022-10-28T10:31:05.388Z,2.08
2022-10-28T10:33:36.429Z,2.15
2022-10-28T10:36:04.408Z,1.90
2022-10-28T10:38:31.912Z,2.00
2022-10-28T10:40:59.077Z,1.85
2022-10-28T10:43:26.316Z,1.70
2022-10-28T10:45:54.548Z,1.83
2022-10-28T10:48:21.831Z,1.85
2022-10-28T10:50:49.542Z,1.77
2022-10-28T10:53:20.074Z,1.80
2022-10-28T10:55:51.155Z,1.48
2022-10-28T10:58:19.548Z,1.92
2022-10-28T11:00:47.694Z,1.42
2022-10-28T11:03:19.500Z,1.67
2022-10-28T11:06:05.448Z,1.52
2022-10-28T11:08:41.569Z,1.88
2022-10-28T11:11:13.092Z,1.67
2022-10-28T11:13:42.356Z,2.30
2022-10-28T11:16:23.638Z,1.60
2022-10-28T11:18:53.965Z,1.55
2022-10-28T11:21:47.952Z,1.30
2022-10-28T11:24:15.088Z,1.50
2022-10-28T11:26:44.781Z,2.15
2022-10-28T11:29:12.460Z,1.85
2022-10-28T11:31:58.365Z,1.40
2022-10-28T11:34:25.517Z,1.60
2022-10-28T11:36:57.005Z,1.35
2022-10-28T11:39:26.806Z,1.55
2022-10-28T11:42:09.218Z,1.35
2022-10-28T11:44:36.452Z,1.60
2022-10-28T11:47:22.087Z,1.50
2022-10-28T11:50:02.425Z,1.58
2022-10-28T11:52:35.765Z,1.38
2022-10-28T11:55:21.436Z,1.60
2022-10-28T11:58:10.571Z,1.60
2022-10-28T12:00:45.185Z,1.70
2022-10-28T12:03:12.410Z,1.55
2022-10-28T12:05:48.269Z,1.73
2022-10-28T12:08:15.420Z,1.88
2022-10-28T12:10:48.380Z,1.77
2022-10-28T12:13:18.638Z,1.80
2022-10-28T12:15:45.808Z,1.40
2022-10-28T12:18:19.257Z,1.90
2022-10-28T12:20:49.146Z,1.80
2022-10-28T12:23:18.096Z,8.82
2022-10-28T12:25:46.120Z,3.67
2022-10-28T12:28:19.557Z,2.30
2022-10-28T12:30:46.750Z,1.98
2022-10-28T12:33:19.978Z,1.73
2022-10-28T12:36:07.431Z,1.60
2022-10-28T12:38:37.409Z,2.03
2022-10-28T12:41:08.844Z,1.50
2022-10-28T12:43:54.482Z,1.52
2022-10-28T12:46:34.019Z,1.52
2022-10-28T12:49:04.621Z,1.52
2022-10-28T12:51:32.381Z,1.40
2022-10-28T12:54:01.600Z,1.67
2022-10-28T12:56:37.307Z,1.40
2022-10-28T12:59:05.695Z,2.20
2022-10-28T13:01:33.252Z,3.05
2022-10-28T13:04:00.514Z,2.08
2022-10-28T13:06:46.382Z,2.22
2022-10-28T13:09:33.272Z,2.63
2022-10-28T13:12:06.457Z,1.92
2022-10-28T13:14:51.684Z,2.45
2022-10-28T13:17:24.757Z,2.25
2022-10-28T13:19:51.881Z,2.25
2022-10-28T13:22:19.077Z,2.50
2022-10-28T13:24:52.080Z,2.38
2022-10-28T13:27:19.239Z,2.67
2022-10-28T13:29:49.321Z,3.05
2022-10-28T13:32:38.601Z,2.20
2022-10-28T13:35:13.781Z,2.88
2022-10-28T13:37:41.068Z,2.95
2022-10-28T13:40:11.946Z,3.05
2022-10-28T13:42:43.509Z,2.97
2022-10-28T13:45:30.616Z,2.90
2022-10-28T13:48:16.516Z,2.80
2022-10-28T13:50:43.712Z,2.92
2022-10-28T13:53:25.993Z,2.90
2022-10-28T13:55:56.928Z,2.90
2022-10-28T13:58:24.861Z,3.17
2022-10-28T14:00:53.537Z,3.38
2022-10-28T14:03:25.105Z,5.00
2022-10-28T14:05:53.644Z,6.85
2022-10-28T14:08:34.533Z,4.35
2022-10-28T14:11:07.834Z,3.85
2022-10-28T14:13:55.209Z,3.50
2022-10-28T14:16:25.172Z,3.28
2022-10-28T14:19:16.896Z,2.67
2022-10-28T14:21:48.314Z,3.42
2022-10-28T14:24:31.633Z,3.00
2022-10-28T14:27:12.539Z,3.22
2022-10-28T14:29:49.360Z,3.20
2022-10-28T14:32:32.055Z,3.22
2022-10-28T14:35:12.927Z,3.40
2022-10-28T14:37:55.444Z,3.35
2022-10-28T14:40:24.068Z,3.90
2022-10-28T14:43:02.548Z,5.72
2022-10-28T14:45:29.677Z,4.28
2022-10-28T14:48:15.406Z,7.68
2022-10-28T14:50:48.809Z,7.40
2022-10-28T14:53:31.807Z,6.30
2022-10-28T14:56:03.640Z,6.60
2022-10-28T14:58:43.237Z,5.75
2022-10-28T15:01:10.495Z,5.18
2022-10-28T15:03:37.775Z,5.25
2022-10-28T15:06:28.045Z,4.97
2022-10-28T15:08:55.175Z,5.40
2022-10-28T15:11:22.303Z,5.97
2022-10-28T15:13:50.536Z,8.82
2022-10-28T15:16:21.320Z,9.45
2022-10-28T15:18:49.096Z,5.50
2022-10-28T15:21:17.864Z,7.75
2022-10-28T15:23:47.368Z,12.65
2022-10-28T15:26:18.935Z,8.77
2022-10-28T15:28:46.069Z,9.77
2022-10-28T15:31:13.185Z,7.25
2022-10-28T15:33:40.896Z,8.05
2022-10-28T15:36:12.582Z,16.17
2022-10-28T15:38:42.995Z,7.88
2022-10-28T15:41:22.052Z,8.43
2022-10-28T15:43:55.732Z,11.30
2022-10-28T15:46:23.307Z,10.23
2022-10-28T15:48:57.472Z,9.93
2022-10-28T15:51:24.657Z,17.83
2022-10-28T15:53:54.072Z,21.23
2022-10-28T15:56:21.409Z,42.08
2022-10-28T15:59:14.867Z,22.02
2022-10-28T16:01:42.160Z,30.77
2022-10-28T16:04:18.615Z,33.22
2022-10-28T16:06:45.942Z,100.45
2022-10-28T16:09:20.400Z,48.13
2022-10-28T16:11:48.387Z,79.68
2022-10-28T16:14:18.528Z,44.22
2022-10-28T16:16:45.646Z,38.38
2022-10-28T16:19:22.668Z,37.42
2022-10-28T16:21:49.801Z,36.30
2022-10-28T16:24:16.939Z,81.45
2022-10-28T16:26:44.089Z,128.88
2022-10-28T16:29:11.227Z,96.35
2022-10-28T16:31:38.339Z,74.55
2022-10-28T16:34:05.502Z,97.43
2022-10-28T16:36:32.664Z,105.88
2022-10-28T16:38:59.808Z,93.40
2022-10-28T16:41:27.013Z,89.88
2022-10-28T16:43:55.832Z,72.10
2022-10-28T16:46:23.167Z,67.70
2022-10-28T16:48:50.334Z,69.78
2022-10-28T16:51:17.910Z,82.72
2022-10-28T16:53:48.412Z,72.15
2022-10-28T16:56:16.499Z,71.68
2022-10-28T16:58:43.935Z,94.35
2022-10-28T17:01:11.477Z,82.55
2022-10-28T17:03:38.730Z,65.88
2022-10-28T17:06:05.949Z,61.05
2022-10-28T17:11:20.379Z,67.28
2022-10-28T17:13:48.027Z,71.30
2022-10-28T17:16:15.259Z,64.88
2022-10-28T17:18:43.652Z,70.78
2022-10-28T17:21:10.783Z,72.82
2022-10-28T17:23:37.911Z,78.82
2022-10-28T17:26:05.105Z,85.45
2022-10-28T17:28:32.264Z,74.47
2022-10-28T17:31:03.503Z,61.42
2022-10-28T17:33:30.793Z,57.65
2022-10-28T17:36:01.558Z,56.65
2022-10-28T17:38:28.739Z,56.88
2022-10-28T17:40:56.162Z,54.78
2022-10-28T17:43:23.381Z,60.97
2022-10-28T17:45:50.704Z,60.97
2022-10-28T17:48:17.972Z,58.92
2022-10-28T17:50:45.221Z,56.70
2022-10-28T17:56:42.199Z,72.78
2022-10-28T17:59:09.588Z,98.03
2022-10-28T18:01:36.788Z,97.63
2022-10-28T18:04:04.669Z,94.32
2022-10-28T18:06:31.866Z,84.47
2022-10-28T18:08:59.011Z,67.35
2022-10-28T18:11:27.468Z,65.95
2022-10-28T18:13:56.308Z,74.97
2022-10-28T18:16:25.247Z,85.82
2022-10-28T18:18:53.744Z,70.40
2022-10-28T18:21:21.012Z,58.45
2022-10-28T18:23:52.342Z,50.35
2022-10-28T18:26:19.517Z,59.60
2022-10-28T18:28:46.901Z,54.35
2022-10-28T18:31:14.824Z,43.50
2022-10-28T18:33:42.292Z,42.05
2022-10-28T18:36:16.247Z,59.58
2022-10-28T18:38:43.543Z,57.55
2022-10-28T18:41:17.547Z,46.60
2022-10-28T18:43:44.713Z,50.80
2022-10-28T18:46:11.868Z,53.90
2022-10-28T18:48:39.227Z,47.80
2022-10-28T18:51:07.339Z,45.75
2022-10-28T18:53:37.914Z,48.75
2022-10-28T18:56:06.225Z,41.33
2022-10-28T18:58:34.615Z,38.15
2022-10-28T19:01:08.802Z,38.97
2022-10-28T19:03:36.115Z,40.58
2022-10-28T19:06:03.997Z,38.70
2022-10-28T19:08:31.165Z,35.47
2022-10-28T19:10:58.637Z,28.42
2022-10-28T19:13:25.822Z,31.35
2022-10-28T19:15:53.017Z,35.42
2022-10-28T19:18:20.192Z,40.92
2022-10-28T19:20:47.352Z,34.60
2022-10-28T19:23:14.599Z,32.67
2022-10-28T19:25:41.768Z,36.17
2022-10-28T19:28:08.934Z,52.35
2022-10-28T19:30:37.582Z,42.53
2022-10-28T19:33:04.735Z,44.67
2022-10-28T19:35:33.532Z,52.00
2022-10-28T19:38:00.715Z,45.47
2022-10-28T19:40:27.836Z,51.17
2022-10-28T19:42:55.121Z,48.08
2022-10-28T19:45:22.526Z,43.45
2022-10-28T19:47:49.681Z,34.70
2022-10-28T19:50:16.969Z,42.47
2022-10-28T19:52:44.178Z,51.65
2022-10-28T19:55:14.884Z,45.95
2022-10-28T19:57:42.334Z,36.70
2022-10-28T20:00:10.231Z,37.75
2022-10-28T20:02:37.431Z,34.85
2022-10-28T20:05:04.780Z,33.97
2022-10-28T20:07:31.938Z,42.45
2022-10-28T20:12:31.191Z,43.70
2022-10-28T20:14:58.347Z,39.33
2022-10-28T20:17:25.518Z,39.08
2022-10-28T20:19:52.713Z,35.40
2022-10-28T20:22:19.878Z,38.17
2022-10-28T20:24:47.027Z,33.78
2022-10-28T20:27:14.149Z,34.13
2022-10-28T20:29:41.296Z,32.13
2022-10-28T20:32:08.428Z,31.02
2022-10-28T20:34:35.627Z,29.58
2022-10-28T20:37:02.801Z,28.20
2022-10-28T20:39:29.931Z,28.60
2022-10-28T20:41:57.128Z,27.75
2022-10-28T20:44:24.360Z,27.15
2022-10-28T20:46:51.501Z,25.55
2022-10-28T20:49:18.648Z,29.90
2022-10-28T20:51:45.894Z,30.40
2022-10-28T20:54:13.024Z,33.78
2022-10-28T20:56:41.848Z,38.83
2022-10-28T20:59:09.077Z,35.72
2022-10-28T21:01:39.003Z,29.75
2022-10-28T21:04:06.956Z,28.35
2022-10-28T21:06:34.285Z,28.42
2022-10-28T21:09:01.469Z,24.92
2022-10-28T21:11:28.808Z,25.85
2022-10-28T21:13:57.140Z,28.13
2022-10-28T21:16:24.384Z,22.83
2022-10-28T21:18:51.613Z,24.23
2022-10-28T21:21:19.369Z,22.55
2022-10-28T21:23:46.532Z,29.30
2022-10-28T21:26:13.804Z,25.45
2022-10-28T21:28:43.890Z,22.48
2022-10-28T21:31:11.943Z,26.50
2022-10-28T21:33:39.187Z,26.65
2022-10-28T21:36:07.374Z,27.63
2022-10-28T21:38:34.942Z,27.55
2022-10-28T21:41:05.206Z,27.67
2022-10-28T21:43:33.496Z,29.65
2022-10-28T21:46:00.641Z,33.20
2022-10-28T21:48:28.298Z,32.60
2022-10-28T21:50:56.232Z,27.92
2022-10-28T21:53:23.729Z,25.25
2022-10-28T21:55:51.318Z,25.45
2022-10-28T21:58:18.839Z,26.60
2022-10-28T22:00:46.031Z,24.20
2022-10-28T22:03:13.384Z,23.85
2022-10-28T22:05:40.744Z,20.02
2022-10-28T22:08:07.894Z,19.25
2022-10-28T22:10:35.016Z,20.92
2022-10-28T22:13:02.184Z,19.98
2022-10-28T22:15:29.305Z,19.23
2022-10-28T22:17:56.761Z,18.88
2022-10-28T22:22:56.609Z,21.50
2022-10-28T22:25:24.089Z,21.30
2022-10-28T22:27:51.241Z,19.08
2022-10-28T22:30:18.429Z,19.02
2022-10-28T22:32:45.554Z,15.25
2022-10-28T22:35:12.711Z,14.95
2022-10-28T22:37:39.876Z,15.23
2022-10-28T22:40:07.320Z,17.65
2022-10-28T22:42:35.284Z,14.77
2022-10-28T22:45:02.405Z,15.70
2022-10-28T22:47:29.530Z,15.45
2022-10-28T22:49:56.673Z,15.32
2022-10-28T22:52:23.837Z,15.35
2022-10-28T22:54:50.965Z,14.65
2022-10-28T22:57:18.139Z,12.90
2022-10-28T22:59:45.258Z,12.60
2022-10-28T23:02:12.508Z,13.45
2022-10-28T23:04:39.733Z,21.92
2022-10-28T23:07:06.848Z,18.35
2022-10-28T23:09:33.978Z,16.58
2022-10-28T23:12:01.149Z,14.50
2022-10-28T23:14:28.264Z,12.00
2022-10-28T23:16:55.417Z,12.88
2022-10-28T23:19:22.620Z,11.90
2022-10-28T23:21:49.741Z,11.52
2022-10-28T23:24:16.938Z,11.40
2022-10-28T23:26:44.143Z,12.15
2022-10-28T23:29:11.335Z,10.95
2022-10-28T23:31:38.488Z,12.25
2022-10-28T23:34:05.729Z,13.13
2022-10-28T23:36:34.715Z,11.68
2022-10-28T23:39:01.881Z,11.25
2022-10-28T23:41:29.047Z,11.02
2022-10-28T23:43:56.987Z,12.48
2022-10-28T23:46:25.030Z,10.77
2022-10-28T23:48:52.192Z,9.48
2022-10-28T23:51:20.337Z,9.48
2022-10-28T23:53:47.504Z,9.23
2022-10-28T23:56:14.666Z,10.05
2022-10-28T23:58:41.806Z,11.02
